Time;durP1;ratioP1;P1;durP2;ratioP2;P2;SDS_P1;SDS_P2;PMS_P1;PMS_P2;Temp;Humidity;BMP_temperature;BMP_pressure;BME280_temperature;BME280_humidity;BME280_pressure;Samples;Min_cycle;Max_cycle;Signal;HPM_P1;HPM_P2
2022/02/16 00:02:07;;;;;;;2.37;1.87;;;8.40;99.90;;;;;;5079601;28;20252;-75
2022/02/16 00:04:33;;;;;;;4.10;2.17;;;8.40;99.90;;;;;;5078657;28;20432;-75
2022/02/16 00:06:58;;;;;;;3.00;1.80;;;8.40;99.90;;;;;;5077605;28;20424;-77
2022/02/16 00:09:24;;;;;;;4.73;1.90;;;8.40;99.90;;;;;;5078759;28;20623;-75
2022/02/16 00:11:53;;;;;;;3.77;1.80;;;8.30;99.90;;;;;;5074850;28;20214;-75
2022/02/16 00:14:18;;;;;;;3.50;1.93;;;8.30;99.90;;;;;;5060805;28;20190;-76
2022/02/16 00:16:44;;;;;;;2.60;2.03;;;8.40;99.90;;;;;;5080729;28;21001;-78
2022/02/16 00:19:09;;;;;;;2.00;1.80;;;8.40;99.90;;;;;;5061955;28;20669;-75
2022/02/16 00:21:35;;;;;;;6.63;1.60;;;8.40;99.90;;;;;;5078268;28;21236;-76
2022/02/16 00:24:00;;;;;;;3.10;1.97;;;8.40;99.90;;;;;;5081004;28;20294;-76
2022/02/16 00:26:26;;;;;;;1.90;1.60;;;8.40;99.90;;;;;;5077916;28;20210;-76
2022/02/16 00:28:52;;;;;;;4.10;1.50;;;8.40;99.90;;;;;;5078904;28;20195;-74
2022/02/16 00:31:18;;;;;;;1.80;1.70;;;8.40;99.90;;;;;;5080547;28;20199;-76
2022/02/16 00:33:43;;;;;;;2.43;1.93;;;8.40;99.90;;;;;;5079092;28;20655;-76
2022/02/16 00:36:09;;;;;;;5.40;2.67;;;8.30;99.90;;;;;;5079914;28;20460;-76
2022/02/16 00:38:35;;;;;;;4.13;1.73;;;8.40;99.90;;;;;;5078161;28;20286;-75
2022/02/16 00:41:00;;;;;;;8.30;2.00;;;8.30;99.90;;;;;;5079513;28;20221;-75
2022/02/16 00:43:26;;;;;;;2.80;1.67;;;8.30;99.90;;;;;;5080654;28;20218;-78
2022/02/16 00:45:52;;;;;;;3.10;2.10;;;8.40;99.90;;;;;;5062723;28;20184;-76
2022/02/16 00:48:17;;;;;;;2.47;2.27;;;8.40;99.90;;;;;;5078177;28;20197;-75
2022/02/16 00:50:43;;;;;;;2.30;1.60;;;8.50;99.90;;;;;;5082300;28;20198;-76
2022/02/16 00:53:09;;;;;;;2.30;1.57;;;8.40;99.90;;;;;;5077765;28;20887;-77
2022/02/16 00:55:34;;;;;;;3.80;1.53;;;8.40;99.90;;;;;;5081558;28;20187;-75
2022/02/16 00:58:00;;;;;;;4.57;1.87;;;8.40;99.90;;;;;;5080839;28;20198;-76
2022/02/16 01:00:25;;;;;;;2.37;1.67;;;8.40;99.90;;;;;;5062139;28;20241;-76
2022/02/16 01:02:51;;;;;;;2.67;1.80;;;8.40;99.90;;;;;;5078840;28;20179;-76
2022/02/16 01:05:16;;;;;;;3.50;1.80;;;8.40;99.90;;;;;;5077334;28;20198;-76
2022/02/16 01:07:42;;;;;;;3.70;1.80;;;8.40;99.90;;;;;;5080981;28;20713;-76
2022/02/16 01:10:09;;;;;;;5.03;1.60;;;8.40;99.90;;;;;;5078697;28;20182;-74
2022/02/16 01:12:35;;;;;;;4.80;1.80;;;8.40;99.90;;;;;;5081147;28;20210;-74
2022/02/16 01:15:01;;;;;;;1.70;1.50;;;8.40;99.90;;;;;;5080703;28;20445;-75
2022/02/16 01:17:26;;;;;;;5.63;2.03;;;8.40;99.90;;;;;;5081358;28;20552;-75
2022/02/16 01:19:52;;;;;;;2.90;1.60;;;8.40;99.90;;;;;;5113272;22;20467;-73
2022/02/16 01:22:17;;;;;;;3.37;1.70;;;8.40;99.90;;;;;;5077193;28;20182;-72
2022/02/16 01:24:43;;;;;;;3.37;1.77;;;8.40;99.90;;;;;;5076173;28;20190;-73
2022/02/16 01:27:09;;;;;;;1.77;1.63;;;8.40;99.90;;;;;;5078119;28;20191;-73
2022/02/16 01:29:34;;;;;;;1.80;1.33;;;8.40;99.90;;;;;;5077829;28;20352;-73
2022/02/16 01:32:00;;;;;;;5.13;1.77;;;8.40;99.90;;;;;;5063084;28;20183;-72
2022/02/16 01:34:25;;;;;;;3.23;1.70;;;8.40;99.90;;;;;;5079280;28;20257;-72
2022/02/16 01:36:51;;;;;;;2.00;1.67;;;8.40;99.90;;;;;;5076498;28;20633;-73
2022/02/16 01:39:17;;;;;;;2.97;1.70;;;8.40;99.90;;;;;;5076871;28;20211;-73
2022/02/16 01:41:43;;;;;;;4.50;1.83;;;8.30;99.90;;;;;;5078254;28;20193;-73
2022/02/16 01:44:09;;;;;;;2.40;1.50;;;8.30;99.90;;;;;;5079106;28;20203;-73
2022/02/16 01:46:52;;;;;;;1.77;1.60;;;8.30;99.90;;;;;;5077903;28;20523;-74
2022/02/16 01:49:18;;;;;;;2.30;1.70;;;8.20;99.90;;;;;;5075349;28;20250;-73
2022/02/16 01:51:44;;;;;;;4.70;1.70;;;8.30;99.90;;;;;;5078401;28;21134;-72
2022/02/16 01:54:13;;;;;;;3.63;1.70;;;8.20;99.90;;;;;;5080496;28;20429;-73
2022/02/16 01:56:42;;;;;;;4.13;1.80;;;8.10;99.90;;;;;;5075281;28;20428;-73
2022/02/16 01:59:09;;;;;;;2.60;1.63;;;8.20;99.90;;;;;;5079231;28;20472;-73
2022/02/16 02:01:36;;;;;;;2.43;1.63;;;8.20;99.90;;;;;;5077918;28;20480;-73
2022/02/16 02:04:02;;;;;;;3.03;1.80;;;8.10;99.90;;;;;;5080011;28;20429;-72
2022/02/16 02:06:27;;;;;;;2.17;1.27;;;8.00;99.90;;;;;;5075329;28;20459;-73
2022/02/16 02:08:53;;;;;;;2.17;1.27;;;8.00;99.90;;;;;;5078269;28;20179;-73
2022/02/16 02:11:18;;;;;;;3.00;1.63;;;8.10;99.90;;;;;;5077753;28;20309;-72
2022/02/16 02:14:13;;;;;;;2.80;1.50;;;8.00;99.90;;;;;;5079186;28;20200;-73
2022/02/16 02:16:40;;;;;;;2.47;1.60;;;7.90;99.90;;;;;;5055075;28;20252;-73
2022/02/16 02:19:06;;;;;;;3.07;1.60;;;7.90;99.90;;;;;;5080566;28;20464;-73
2022/02/16 02:21:32;;;;;;;3.03;1.43;;;7.90;99.90;;;;;;5077182;28;20460;-73
2022/02/16 02:23:59;;;;;;;4.50;1.83;;;7.90;99.90;;;;;;5079910;28;20564;-73
2022/02/16 02:26:25;;;;;;;1.90;1.47;;;7.90;99.90;;;;;;5078304;28;20194;-74
2022/02/16 02:28:51;;;;;;;3.10;1.50;;;7.90;99.90;;;;;;5076122;28;20431;-73
2022/02/16 02:31:31;;;;;;;3.30;1.77;;;7.90;99.90;;;;;;5079865;28;20451;-73
2022/02/16 02:33:57;;;;;;;3.93;1.60;;;7.80;99.90;;;;;;5076550;28;20806;-74
2022/02/16 02:36:23;;;;;;;3.63;1.60;;;7.80;99.90;;;;;;5062855;28;20441;-73
2022/02/16 02:38:48;;;;;;;4.20;1.90;;;7.90;99.90;;;;;;5079580;28;20614;-72
2022/02/16 02:41:14;;;;;;;2.03;1.47;;;7.80;99.90;;;;;;5076583;28;20206;-72
2022/02/16 02:43:44;;;;;;;4.80;1.87;;;7.80;99.90;;;;;;5079037;28;20216;-73
2022/02/16 02:46:10;;;;;;;3.40;1.77;;;7.70;99.90;;;;;;5064031;28;20190;-73
2022/02/16 02:48:38;;;;;;;4.60;1.73;;;7.70;99.90;;;;;;5075548;28;20934;-74
2022/02/16 02:51:03;;;;;;;3.67;1.80;;;7.70;99.90;;;;;;5076120;28;20460;-74
2022/02/16 02:53:29;;;;;;;3.90;1.67;;;7.70;99.90;;;;;;5079559;28;20953;-74
2022/02/16 02:55:55;;;;;;;4.33;1.47;;;7.70;99.90;;;;;;5076658;28;20203;-74
2022/02/16 02:58:21;;;;;;;2.97;1.60;;;7.70;99.90;;;;;;5063903;28;21067;-73
2022/02/16 03:00:46;;;;;;;3.30;1.40;;;7.70;99.90;;;;;;5075287;28;20456;-73
2022/02/16 03:03:12;;;;;;;2.33;1.53;;;7.70;99.90;;;;;;5076506;28;20182;-72
2022/02/16 03:05:38;;;;;;;2.40;1.97;;;7.70;99.90;;;;;;5074124;28;20444;-72
2022/02/16 03:08:04;;;;;;;2.63;1.30;;;7.60;99.90;;;;;;5075554;28;20241;-71
2022/02/16 03:10:30;;;;;;;4.90;1.57;;;7.70;99.90;;;;;;5075269;28;20233;-73
2022/02/16 03:12:56;;;;;;;2.30;1.40;;;7.70;99.90;;;;;;5076785;28;20441;-73
2022/02/16 03:15:22;;;;;;;5.40;1.50;;;7.60;99.90;;;;;;5077221;28;20561;-72
2022/02/16 03:17:47;;;;;;;2.20;1.50;;;7.70;99.90;;;;;;5079017;28;20197;-73
2022/02/16 03:20:13;;;;;;;3.00;1.77;;;7.70;99.90;;;;;;5083081;28;20681;-72
2022/02/16 03:22:40;;;;;;;2.90;1.50;;;7.60;99.90;;;;;;5078560;28;20182;-72
2022/02/16 03:25:10;;;;;;;2.77;1.20;;;7.70;99.90;;;;;;5080566;28;20175;-73
2022/02/16 03:27:37;;;;;;;2.00;1.33;;;7.70;99.90;;;;;;5066537;28;20444;-73
2022/02/16 03:30:06;;;;;;;6.40;2.07;;;7.70;99.90;;;;;;5080143;28;20447;-72
2022/02/16 03:32:32;;;;;;;2.07;1.20;;;7.70;99.90;;;;;;5077382;28;20440;-73
2022/02/16 03:34:57;;;;;;;1.60;1.30;;;7.70;99.90;;;;;;5078976;28;20460;-73
2022/02/16 03:37:23;;;;;;;7.10;1.60;;;7.70;99.90;;;;;;5079212;28;20180;-72
2022/02/16 03:39:49;;;;;;;2.97;1.43;;;7.70;99.90;;;;;;5063076;28;20214;-72
2022/02/16 03:42:14;;;;;;;1.87;1.40;;;7.70;99.90;;;;;;5080771;28;20179;-72
2022/02/16 03:44:41;;;;;;;2.47;1.60;;;7.70;99.90;;;;;;5078003;28;20197;-72
2022/02/16 03:47:07;;;;;;;2.50;1.40;;;7.70;99.90;;;;;;5080417;28;20598;-73
2022/02/16 03:49:32;;;;;;;2.33;1.60;;;7.70;99.90;;;;;;5078640;28;20436;-72
2022/02/16 03:51:58;;;;;;;3.70;1.50;;;7.70;99.90;;;;;;5080700;28;20190;-73
2022/02/16 03:54:24;;;;;;;3.47;1.87;;;7.70;99.90;;;;;;5078764;28;20191;-73
2022/02/16 03:56:51;;;;;;;6.57;1.93;;;7.60;99.90;;;;;;5078145;28;20270;-71
2022/02/16 03:59:16;;;;;;;1.87;1.50;;;7.70;99.90;;;;;;5078056;28;20206;-74
2022/02/16 04:01:42;;;;;;;1.40;1.17;;;7.70;99.90;;;;;;5081002;28;20427;-72
2022/02/16 04:04:08;;;;;;;3.30;1.77;;;7.70;99.90;;;;;;5076197;28;20753;-73
2022/02/16 04:06:33;;;;;;;2.77;1.60;;;7.70;99.90;;;;;;5078882;28;20181;-73
2022/02/16 04:08:59;;;;;;;3.50;1.60;;;7.70;99.90;;;;;;5077043;28;20194;-72
2022/02/16 04:11:26;;;;;;;3.20;1.50;;;7.70;99.90;;;;;;5081125;28;20202;-72
2022/02/16 04:13:55;;;;;;;2.27;1.83;;;7.60;99.90;;;;;;5078780;28;20620;-72
2022/02/16 04:16:24;;;;;;;1.60;1.37;;;7.60;99.90;;;;;;5077233;28;20884;-72
2022/02/16 04:18:50;;;;;;;5.90;1.70;;;7.60;99.90;;;;;;5079287;28;20465;-72
2022/02/16 04:21:16;;;;;;;3.40;1.67;;;7.70;99.90;;;;;;5076201;28;21423;-72
2022/02/16 04:23:43;;;;;;;2.13;1.23;;;7.70;99.90;;;;;;5077802;28;20447;-72
2022/02/16 04:26:09;;;;;;;3.07;1.30;;;7.70;99.90;;;;;;5079959;28;20425;-72
2022/02/16 04:28:34;;;;;;;2.00;1.40;;;7.70;99.90;;;;;;5075332;28;20487;-72
2022/02/16 04:31:00;;;;;;;4.70;1.63;;;7.70;99.90;;;;;;5081198;28;20539;-71
2022/02/16 04:33:26;;;;;;;2.53;1.40;;;7.70;99.90;;;;;;5078983;28;20191;-71
2022/02/16 04:35:52;;;;;;;2.13;1.83;;;7.70;99.90;;;;;;5077326;28;20191;-73
2022/02/16 04:38:17;;;;;;;1.97;1.53;;;7.60;99.90;;;;;;5079257;28;20205;-73
2022/02/16 04:40:43;;;;;;;3.47;1.57;;;7.70;99.90;;;;;;5077344;28;20268;-73
2022/02/16 04:43:09;;;;;;;1.93;1.30;;;7.70;99.90;;;;;;5076322;28;20182;-72
2022/02/16 04:45:35;;;;;;;3.60;1.50;;;7.70;99.90;;;;;;5075927;28;20598;-73
2022/02/16 04:48:02;;;;;;;2.77;1.47;;;7.70;99.90;;;;;;5077810;28;20190;-71
2022/02/16 04:50:27;;;;;;;2.43;1.40;;;7.70;99.90;;;;;;5076172;28;20476;-72
2022/02/16 04:52:56;;;;;;;3.33;3.03;;;7.70;99.90;;;;;;5077630;28;20443;-73
2022/02/16 04:55:26;;;;;;;4.03;1.30;;;7.70;99.90;;;;;;5083315;28;20681;-72
2022/02/16 04:57:53;;;;;;;4.37;1.50;;;7.70;99.90;;;;;;5076580;28;20698;-73
2022/02/16 05:00:19;;;;;;;1.40;1.30;;;7.80;99.90;;;;;;5065546;28;20544;-74
2022/02/16 05:02:45;;;;;;;1.30;1.10;;;7.80;99.90;;;;;;5075788;28;20439;-72
2022/02/16 05:05:11;;;;;;;2.60;1.40;;;7.80;99.90;;;;;;5079636;28;20440;-72
2022/02/16 05:07:37;;;;;;;1.67;1.00;;;7.90;99.90;;;;;;5080157;28;20428;-73
2022/02/16 05:10:04;;;;;;;1.50;1.10;;;7.90;99.90;;;;;;5076379;28;20668;-74
2022/02/16 05:12:37;;;;;;;4.80;1.23;;;7.90;99.90;;;;;;5081113;28;21016;-73
2022/02/16 05:15:04;;;;;;;1.70;1.13;;;7.90;99.90;;;;;;5078146;28;20517;-74
2022/02/16 05:17:30;;;;;;;1.20;1.10;;;8.00;99.90;;;;;;5072214;28;20436;-74
2022/02/16 05:19:55;;;;;;;1.40;1.13;;;8.00;99.90;;;;;;5077515;28;20897;-73
2022/02/16 05:22:22;;;;;;;1.93;1.30;;;8.00;99.90;;;;;;5077717;28;20175;-73
2022/02/16 05:24:47;;;;;;;1.30;1.00;;;8.00;99.90;;;;;;5077481;28;20179;-73
2022/02/16 05:27:14;;;;;;;1.60;1.07;;;8.00;99.90;;;;;;5075900;28;20972;-74
2022/02/16 05:29:39;;;;;;;2.50;1.27;;;8.00;99.90;;;;;;5080189;28;20202;-74
2022/02/16 05:32:06;;;;;;;1.40;1.20;;;8.10;99.90;;;;;;5077316;28;20965;-73
2022/02/16 05:34:31;;;;;;;1.40;1.00;;;8.10;99.90;;;;;;5077912;28;20187;-74
2022/02/16 05:36:57;;;;;;;2.33;1.20;;;8.10;99.90;;;;;;5079713;28;20490;-73
2022/02/16 05:39:23;;;;;;;2.60;1.13;;;8.10;99.90;;;;;;5074912;28;20207;-73
2022/02/16 05:41:49;;;;;;;1.33;0.97;;;8.20;99.90;;;;;;5078913;28;21417;-75
2022/02/16 05:44:15;;;;;;;3.27;1.17;;;8.20;99.90;;;;;;5075830;28;20244;-74
2022/02/16 05:46:41;;;;;;;1.97;1.50;;;8.20;99.90;;;;;;5072389;28;20445;-72
2022/02/16 05:49:08;;;;;;;2.43;1.20;;;8.20;99.90;;;;;;5074461;28;20201;-72
2022/02/16 05:51:35;;;;;;;1.27;1.10;;;8.30;99.90;;;;;;5065775;28;20710;-73
2022/02/16 05:54:01;;;;;;;2.50;1.10;;;8.30;99.90;;;;;;5074630;28;20505;-73
2022/02/16 05:56:27;;;;;;;2.00;1.17;;;8.30;99.90;;;;;;5074084;28;20802;-72
2022/02/16 05:58:53;;;;;;;1.97;1.33;;;8.30;99.90;;;;;;5074338;28;20467;-73
2022/02/16 06:01:18;;;;;;;1.60;1.30;;;8.40;99.90;;;;;;5077337;28;20194;-72
2022/02/16 06:03:44;;;;;;;2.60;1.10;;;8.40;99.90;;;;;;5076156;28;20248;-71
2022/02/16 06:06:10;;;;;;;6.50;1.57;;;8.40;99.90;;;;;;5077174;28;20274;-72
2022/02/16 06:08:36;;;;;;;3.50;1.33;;;8.50;99.90;;;;;;5071876;28;20186;-72
2022/02/16 06:11:02;;;;;;;1.40;1.20;;;8.50;99.90;;;;;;5073019;28;20507;-71
2022/02/16 06:13:28;;;;;;;1.50;1.20;;;8.50;99.90;;;;;;5077340;28;20779;-72
2022/02/16 06:15:54;;;;;;;1.70;1.20;;;8.40;99.90;;;;;;5074015;28;20444;-71
2022/02/16 06:18:20;;;;;;;1.57;1.10;;;8.50;99.90;;;;;;5073157;28;20487;-73
2022/02/16 06:20:46;;;;;;;3.00;1.30;;;8.50;99.90;;;;;;5062244;28;20207;-73
2022/02/16 06:23:11;;;;;;;1.60;1.10;;;8.50;99.90;;;;;;5073667;28;20427;-74
2022/02/16 06:25:37;;;;;;;1.63;1.00;;;8.50;99.90;;;;;;5056796;28;20652;-71
2022/02/16 06:28:03;;;;;;;1.37;1.07;;;8.50;99.90;;;;;;5073437;28;20183;-74
2022/02/16 06:30:30;;;;;;;2.90;1.10;;;8.50;99.90;;;;;;5075092;28;20207;-71
2022/02/16 06:32:59;;;;;;;1.40;1.07;;;8.50;99.90;;;;;;5056754;28;20445;-74
2022/02/16 06:35:25;;;;;;;2.17;1.27;;;8.50;99.90;;;;;;5070259;28;20909;-71
2022/02/16 06:37:51;;;;;;;1.20;1.00;;;8.50;99.90;;;;;;5075171;28;20859;-73
2022/02/16 06:40:16;;;;;;;1.50;1.10;;;8.50;99.90;;;;;;5079219;28;20472;-74
2022/02/16 06:42:42;;;;;;;1.63;1.20;;;8.50;99.90;;;;;;5077078;28;20216;-71
2022/02/16 06:45:10;;;;;;;1.40;1.20;;;8.40;99.90;;;;;;5062249;28;20200;-71
2022/02/16 06:47:36;;;;;;;1.50;1.10;;;8.50;99.90;;;;;;5074867;28;21069;-69
2022/02/16 06:50:03;;;;;;;1.40;1.00;;;8.50;99.90;;;;;;5075357;28;20815;-70
2022/02/16 06:52:29;;;;;;;1.30;1.00;;;8.40;99.90;;;;;;5076627;28;20468;-71
2022/02/16 06:54:55;;;;;;;2.20;1.17;;;8.50;99.90;;;;;;5076146;28;20475;-72
2022/02/16 06:57:20;;;;;;;1.30;0.97;;;8.40;99.90;;;;;;5076078;28;20191;-72
2022/02/16 06:59:46;;;;;;;1.43;1.10;;;8.50;99.90;;;;;;5077013;28;20253;-71
2022/02/16 07:02:12;;;;;;;1.60;1.00;;;8.40;99.90;;;;;;5073320;28;20256;-72
2022/02/16 07:04:40;;;;;;;1.47;1.00;;;8.40;99.90;;;;;;5076080;28;20185;-72
2022/02/16 07:07:06;;;;;;;4.67;1.40;;;8.40;99.90;;;;;;5076820;28;20188;-72
2022/02/16 07:09:32;;;;;;;1.40;1.10;;;8.30;99.90;;;;;;5075802;28;20817;-72
2022/02/16 07:11:57;;;;;;;1.20;1.00;;;8.40;99.90;;;;;;5077228;28;20256;-72
2022/02/16 07:14:24;;;;;;;2.50;1.40;;;8.40;99.90;;;;;;5074464;28;20179;-73
2022/02/16 07:16:49;;;;;;;2.53;1.10;;;8.50;99.90;;;;;;5060356;28;20196;-73
2022/02/16 07:19:16;;;;;;;1.70;1.30;;;8.50;99.90;;;;;;5072980;28;20551;-70
2022/02/16 07:21:42;;;;;;;3.67;1.30;;;8.50;99.90;;;;;;5071320;28;21546;-71
2022/02/16 07:24:08;;;;;;;1.50;1.10;;;8.50;99.90;;;;;;5075337;28;20412;-71
2022/02/16 07:26:34;;;;;;;1.97;1.43;;;8.50;99.90;;;;;;5077583;28;20929;-71
2022/02/16 07:29:00;;;;;;;1.50;1.00;;;8.50;99.90;;;;;;5078155;28;20174;-73
2022/02/16 07:31:25;;;;;;;2.40;1.27;;;8.50;99.90;;;;;;5073348;28;20469;-72
2022/02/16 07:33:51;;;;;;;2.60;1.40;;;8.60;99.90;;;;;;5077276;28;20186;-72
2022/02/16 07:36:17;;;;;;;1.67;1.10;;;8.60;99.90;;;;;;5078945;28;20865;-72
2022/02/16 07:38:42;;;;;;;1.93;1.20;;;8.60;99.90;;;;;;5071198;28;21107;-72
2022/02/16 07:41:08;;;;;;;1.67;1.17;;;8.60;99.90;;;;;;5078577;28;20629;-72
2022/02/16 07:43:34;;;;;;;1.80;1.30;;;8.60;99.90;;;;;;5057572;28;20714;-72
2022/02/16 07:45:59;;;;;;;1.47;1.13;;;8.60;99.90;;;;;;5071286;28;20712;-71
2022/02/16 07:48:25;;;;;;;1.40;1.17;;;8.60;99.90;;;;;;5074705;28;20218;-71
2022/02/16 07:50:51;;;;;;;1.37;1.13;;;8.60;99.90;;;;;;5074202;28;20937;-71
2022/02/16 07:53:17;;;;;;;1.73;1.17;;;8.60;99.90;;;;;;5075232;28;20183;-72
2022/02/16 07:55:42;;;;;;;1.53;1.20;;;8.50;99.90;;;;;;5073215;28;20178;-72
2022/02/16 07:58:08;;;;;;;2.90;1.50;;;8.50;99.90;;;;;;5073594;28;20461;-77
2022/02/16 08:00:37;;;;;;;1.90;1.30;;;8.50;99.90;;;;;;5077133;28;20205;-76
2022/02/16 08:03:07;;;;;;;1.60;1.20;;;8.50;99.90;;;;;;5072425;28;20425;-74
2022/02/16 08:05:33;;;;;;;1.27;1.00;;;8.60;99.90;;;;;;5079684;28;20424;-75
2022/02/16 08:07:59;;;;;;;1.50;1.13;;;8.50;99.90;;;;;;5078073;28;20836;-75
2022/02/16 08:10:25;;;;;;;2.17;1.13;;;8.50;99.90;;;;;;5077139;28;20448;-74
2022/02/16 08:12:52;;;;;;;2.37;1.37;;;8.50;99.90;;;;;;5076259;28;20420;-74
2022/02/16 08:15:19;;;;;;;3.20;1.40;;;8.60;99.90;;;;;;5074713;28;20505;-75
2022/02/16 08:17:44;;;;;;;1.30;1.10;;;8.60;99.90;;;;;;5077934;28;20421;-75
2022/02/16 08:20:12;;;;;;;1.33;1.03;;;8.60;99.90;;;;;;5077705;28;20464;-75
2022/02/16 08:22:38;;;;;;;1.20;0.90;;;8.60;99.90;;;;;;5077662;28;20244;-76
2022/02/16 08:25:05;;;;;;;2.53;1.30;;;8.60;99.90;;;;;;5063729;28;20433;-75
2022/02/16 08:27:31;;;;;;;1.50;1.30;;;8.60;99.90;;;;;;5059292;28;20291;-77
2022/02/16 08:29:57;;;;;;;1.20;1.00;;;8.70;99.90;;;;;;5082154;28;20452;-76
2022/02/16 08:32:22;;;;;;;1.20;1.00;;;8.70;99.90;;;;;;5077300;28;20213;-74
2022/02/16 08:34:48;;;;;;;2.07;1.20;;;8.80;99.90;;;;;;5061878;28;20235;-75
2022/02/16 08:37:14;;;;;;;1.50;1.13;;;8.80;99.90;;;;;;5081703;28;20191;-73
2022/02/16 08:39:39;;;;;;;1.20;1.00;;;8.90;99.90;;;;;;5079596;28;20210;-73
2022/02/16 08:42:05;;;;;;;1.87;1.20;;;8.90;99.90;;;;;;5078619;28;20540;-74
2022/02/16 08:44:31;;;;;;;1.70;1.30;;;8.90;99.90;;;;;;5082264;28;20225;-72
2022/02/16 08:46:56;;;;;;;1.93;1.00;;;8.90;99.90;;;;;;5083697;28;20221;-72
2022/02/16 08:49:23;;;;;;;1.30;1.20;;;8.90;99.90;;;;;;5081268;28;20195;-73
2022/02/16 08:51:49;;;;;;;3.20;1.10;;;8.90;99.90;;;;;;5075071;28;20183;-75
2022/02/16 08:54:15;;;;;;;1.87;1.20;;;9.00;99.90;;;;;;5076013;28;20430;-75
2022/02/16 08:56:43;;;;;;;1.70;1.27;;;9.00;99.90;;;;;;5059680;28;20429;-75
2022/02/16 08:59:09;;;;;;;1.30;1.00;;;9.00;99.90;;;;;;5077108;28;21027;-75
2022/02/16 09:01:34;;;;;;;1.30;1.00;;;9.10;99.90;;;;;;5080302;28;20456;-75
2022/02/16 09:04:02;;;;;;;1.40;1.10;;;9.10;99.90;;;;;;5076247;28;20430;-75
2022/02/16 09:06:28;;;;;;;1.40;1.00;;;9.20;99.90;;;;;;5078721;28;20675;-75
2022/02/16 09:08:54;;;;;;;1.20;1.00;;;9.30;99.90;;;;;;5077014;28;21005;-75
2022/02/16 09:11:20;;;;;;;1.53;1.17;;;9.40;99.90;;;;;;5079651;28;20453;-74
2022/02/16 09:13:48;;;;;;;1.40;1.10;;;9.40;99.90;;;;;;5077503;28;20186;-75
2022/02/16 09:16:13;;;;;;;1.73;1.53;;;9.50;99.90;;;;;;5078596;28;20190;-75
2022/02/16 09:18:39;;;;;;;1.60;1.10;;;9.50;99.90;;;;;;5080011;28;20452;-75
2022/02/16 09:21:06;;;;;;;1.70;1.40;;;9.50;99.90;;;;;;5061288;28;20581;-75
2022/02/16 09:23:33;;;;;;;1.53;1.20;;;9.50;99.90;;;;;;5078984;28;20849;-75
2022/02/16 09:25:59;;;;;;;1.40;1.10;;;9.60;99.90;;;;;;5075831;28;20462;-75
2022/02/16 09:28:25;;;;;;;1.37;1.10;;;9.60;99.90;;;;;;5078823;28;20421;-73
2022/02/16 09:30:51;;;;;;;1.30;1.10;;;9.60;99.90;;;;;;5060645;28;20464;-69
2022/02/16 09:33:16;;;;;;;2.03;1.00;;;9.60;99.90;;;;;;5078669;28;20219;-68
2022/02/16 09:35:42;;;;;;;1.20;1.00;;;9.60;99.90;;;;;;5081651;28;20560;-68
2022/02/16 09:38:07;;;;;;;1.30;1.00;;;9.70;99.90;;;;;;5076159;28;20286;-68
2022/02/16 09:40:33;;;;;;;1.50;1.10;;;9.80;99.90;;;;;;5074454;28;20198;-68
2022/02/16 09:43:01;;;;;;;1.20;0.93;;;9.90;99.90;;;;;;5076313;28;20229;-69
2022/02/16 09:45:30;;;;;;;2.23;1.00;;;9.90;99.90;;;;;;5079437;28;20189;-68
2022/02/16 09:47:56;;;;;;;1.20;1.03;;;10.00;99.90;;;;;;5079552;28;20493;-69
2022/02/16 09:50:25;;;;;;;1.47;0.97;;;10.00;99.90;;;;;;5078182;28;20438;-67
2022/02/16 09:52:51;;;;;;;1.50;1.20;;;10.00;99.90;;;;;;5079587;28;20440;-68
2022/02/16 09:55:17;;;;;;;1.57;1.10;;;10.00;99.90;;;;;;5079917;28;20432;-68
2022/02/16 09:57:43;;;;;;;1.30;1.20;;;10.00;99.90;;;;;;5075494;28;20197;-68
2022/02/16 10:00:11;;;;;;;1.20;1.00;;;10.10;99.90;;;;;;5079222;28;21578;-69
2022/02/16 10:02:38;;;;;;;1.30;1.00;;;10.10;99.90;;;;;;5075550;28;20604;-67
2022/02/16 10:05:05;;;;;;;2.43;0.93;;;10.20;99.90;;;;;;5080521;28;20460;-67
2022/02/16 10:07:39;;;;;;;1.40;1.10;;;10.20;99.90;;;;;;5078134;28;21035;-68
2022/02/16 10:10:19;;;;;;;1.40;0.90;;;10.20;99.90;;;;;;5077079;28;20819;-70
2022/02/16 10:12:48;;;;;;;1.40;1.13;;;10.30;99.90;;;;;;5078802;28;20805;-68
2022/02/16 10:15:16;;;;;;;2.50;1.10;;;10.30;99.90;;;;;;5075172;28;20436;-69
2022/02/16 10:17:42;;;;;;;1.20;1.00;;;10.40;99.90;;;;;;5080595;28;20504;-68
2022/02/16 10:20:10;;;;;;;1.30;1.00;;;10.50;99.90;;;;;;5075162;28;20464;-69
2022/02/16 10:22:42;;;;;;;1.30;0.90;;;10.50;99.90;;;;;;5079890;28;20181;-68
2022/02/16 10:25:23;;;;;;;1.30;1.10;;;10.60;99.90;;;;;;5076314;28;20444;-68
2022/02/16 10:28:07;;;;;;;1.30;0.90;;;10.70;99.90;;;;;;5080129;28;20427;-68
2022/02/16 10:30:34;;;;;;;1.30;1.07;;;10.70;99.90;;;;;;5080918;28;20451;-68
2022/02/16 10:33:17;;;;;;;1.93;1.30;;;10.90;99.90;;;;;;5077774;28;20431;-68
2022/02/16 10:35:44;;;;;;;1.50;1.00;;;10.90;99.90;;;;;;5077090;28;20436;-68
2022/02/16 10:38:10;;;;;;;1.40;1.10;;;11.00;99.90;;;;;;5077571;28;20451;-67
2022/02/16 10:40:35;;;;;;;1.40;1.00;;;11.00;99.90;;;;;;5074326;28;20453;-67
2022/02/16 10:43:01;;;;;;;1.47;0.93;;;11.00;99.90;;;;;;5076178;28;20547;-66
2022/02/16 10:45:29;;;;;;;1.43;1.00;;;11.00;99.90;;;;;;5077960;28;20189;-68
2022/02/16 10:48:03;;;;;;;1.20;0.90;;;11.10;99.90;;;;;;5077186;28;21244;-67
2022/02/16 10:50:35;;;;;;;1.30;1.00;;;11.10;99.90;;;;;;5075595;28;20457;-68
2022/02/16 10:53:04;;;;;;;1.23;1.00;;;11.00;99.90;;;;;;5078897;28;21063;-68
2022/02/16 10:55:42;;;;;;;1.87;1.00;;;11.10;99.90;;;;;;5075341;28;21021;-69
2022/02/16 10:58:11;;;;;;;1.40;1.20;;;11.30;99.90;;;;;;5074930;28;20436;-68
2022/02/16 11:00:38;;;;;;;3.30;1.10;;;11.40;99.90;;;;;;5078032;28;20932;-68
2022/02/16 11:03:06;;;;;;;2.03;1.17;;;11.30;99.90;;;;;;5076655;28;20484;-68
2022/02/16 11:05:39;;;;;;;2.17;1.13;;;11.30;99.90;;;;;;5078309;28;20420;-66
2022/02/16 11:08:07;;;;;;;1.20;0.90;;;11.30;99.90;;;;;;5077116;28;20808;-67
2022/02/16 11:10:34;;;;;;;1.30;1.10;;;11.30;99.90;;;;;;5060660;28;21223;-69
2022/02/16 11:13:01;;;;;;;2.57;1.07;;;11.20;99.90;;;;;;5078839;28;20425;-68
2022/02/16 11:15:27;;;;;;;3.20;1.10;;;11.10;99.90;;;;;;5077762;28;20421;-67
2022/02/16 11:17:54;;;;;;;1.30;1.00;;;11.10;99.90;;;;;;5076384;28;20975;-69
2022/02/16 11:20:26;;;;;;;1.30;1.00;;;11.10;99.90;;;;;;5061373;28;20931;-70
2022/02/16 11:22:57;;;;;;;1.20;0.90;;;11.00;99.90;;;;;;5076395;28;20436;-68
2022/02/16 11:25:28;;;;;;;1.30;1.00;;;10.90;99.90;;;;;;5080358;28;20466;-68
2022/02/16 11:27:54;;;;;;;3.63;1.20;;;10.90;99.90;;;;;;5075084;28;20433;-70
2022/02/16 11:30:35;;;;;;;5.23;1.00;;;10.80;99.90;;;;;;5076352;28;20455;-66
2022/02/16 11:33:15;;;;;;;1.63;1.47;;;10.80;99.90;;;;;;5071510;28;20516;-66
2022/02/16 11:35:50;;;;;;;2.67;1.67;;;10.70;99.90;;;;;;5073374;28;20445;-67
2022/02/16 11:38:19;;;;;;;1.30;1.10;;;10.60;99.90;;;;;;5075121;28;20478;-67
2022/02/16 11:40:47;;;;;;;1.30;1.00;;;10.60;99.90;;;;;;5075660;28;20449;-69
2022/02/16 11:43:22;;;;;;;1.60;1.00;;;10.60;99.90;;;;;;5080188;28;20875;-68
2022/02/16 11:46:00;;;;;;;1.40;0.90;;;10.50;99.90;;;;;;5079178;28;20419;-67
2022/02/16 11:48:45;;;;;;;1.30;1.00;;;10.60;99.90;;;;;;5079440;28;20448;-67
2022/02/16 11:51:22;;;;;;;1.50;1.00;;;10.60;99.90;;;;;;5078394;28;21093;-67
2022/02/16 11:53:48;;;;;;;1.40;1.13;;;10.60;99.90;;;;;;5080124;28;20432;-66
2022/02/16 11:56:19;;;;;;;1.50;1.00;;;10.60;99.90;;;;;;5077064;28;20447;-67
2022/02/16 11:58:44;;;;;;;2.13;1.20;;;10.60;99.90;;;;;;5076448;28;20211;-67
2022/02/16 12:01:17;;;;;;;1.30;1.00;;;10.60;99.90;;;;;;5080544;28;20489;-67
2022/02/16 12:03:52;;;;;;;1.73;1.10;;;10.60;99.90;;;;;;5077801;28;20183;-67
2022/02/16 12:06:22;;;;;;;1.60;0.90;;;10.60;99.90;;;;;;5078483;28;20427;-66
2022/02/16 12:08:48;;;;;;;1.60;1.03;;;10.60;99.90;;;;;;5076457;28;20509;-67
2022/02/16 12:11:19;;;;;;;1.20;0.90;;;10.60;99.90;;;;;;5073582;28;20823;-66
2022/02/16 12:13:45;;;;;;;1.40;1.00;;;10.60;99.90;;;;;;5076245;28;20277;-65
2022/02/16 12:16:14;;;;;;;1.40;1.00;;;10.60;99.90;;;;;;5076001;28;21187;-67
2022/02/16 12:18:43;;;;;;;1.20;1.00;;;10.60;99.90;;;;;;5078176;28;20190;-67
2022/02/16 12:21:09;;;;;;;1.40;0.90;;;10.60;99.90;;;;;;5074830;28;20469;-67
2022/02/16 12:23:44;;;;;;;1.30;0.87;;;10.50;99.90;;;;;;5074687;28;20950;-66
2022/02/16 12:26:14;;;;;;;1.20;1.00;;;10.50;99.90;;;;;;5057842;28;20442;-66
2022/02/16 12:28:53;;;;;;;1.30;1.10;;;10.50;99.90;;;;;;5075818;28;20445;-66
2022/02/16 12:31:19;;;;;;;1.60;1.17;;;10.50;99.90;;;;;;5077609;28;20465;-65
2022/02/16 12:33:57;;;;;;;1.37;1.00;;;10.50;99.90;;;;;;5075174;28;21287;-65
2022/02/16 12:36:24;;;;;;;1.40;1.00;;;10.50;99.90;;;;;;5074780;28;20436;-66
2022/02/16 12:38:52;;;;;;;3.00;1.27;;;10.50;99.90;;;;;;5076075;28;20457;-66
2022/02/16 12:41:19;;;;;;;1.93;1.30;;;10.60;99.90;;;;;;5077470;28;20444;-65
2022/02/16 12:43:59;;;;;;;1.70;1.20;;;10.60;99.90;;;;;;5073569;28;21173;-65
2022/02/16 12:46:31;;;;;;;1.40;1.20;;;10.60;99.90;;;;;;5076162;28;20486;-68
2022/02/16 12:48:57;;;;;;;1.30;1.00;;;10.70;99.90;;;;;;5071653;28;20513;-67
2022/02/16 12:51:30;;;;;;;1.30;1.10;;;10.80;99.90;;;;;;5072417;28;20492;-67
2022/02/16 12:54:01;;;;;;;1.30;1.03;;;10.80;99.90;;;;;;5078347;28;20436;-66
2022/02/16 12:56:26;;;;;;;4.00;1.27;;;10.80;99.90;;;;;;5075308;28;20523;-67